createdAt,value
2023-09-02T00:00:01.785Z,20.19
2023-09-02T00:02:28.833Z,20.11
2023-09-02T00:04:55.781Z,20.11
2023-09-02T00:07:22.729Z,20.13
2023-09-02T00:09:49.732Z,20.13
2023-09-02T00:12:16.629Z,19.96
2023-09-02T00:14:43.490Z,20.02
2023-09-02T00:17:10.392Z,19.99
2023-09-02T00:19:37.210Z,19.95
2023-09-02T00:22:04.724Z,19.91
2023-09-02T00:24:31.609Z,19.92
2023-09-02T00:26:58.530Z,19.91
2023-09-02T00:29:25.443Z,19.88
2023-09-02T00:31:52.390Z,19.78
2023-09-02T00:34:19.330Z,19.85
2023-09-02T00:36:46.266Z,19.81
2023-09-02T00:39:13.282Z,19.70
2023-09-02T00:41:56.403Z,19.71
2023-09-02T00:44:23.542Z,19.69
2023-09-02T00:46:50.672Z,19.62
2023-09-02T00:49:17.498Z,19.63
2023-09-02T00:51:44.570Z,19.60
2023-09-02T00:54:11.750Z,19.55
2023-09-02T00:56:38.823Z,19.52
2023-09-02T00:59:06.632Z,19.53
2023-09-02T01:01:35.709Z,19.55
2023-09-02T01:04:05.790Z,19.54
2023-09-02T01:06:34.287Z,19.56
2023-09-02T01:09:01.959Z,19.48
2023-09-02T01:11:28.916Z,19.49
2023-09-02T01:13:55.844Z,19.40
2023-09-02T01:16:23.889Z,19.35
2023-09-02T01:18:50.905Z,19.29
2023-09-02T01:21:36.168Z,19.19
2023-09-02T01:24:37.645Z,19.22
2023-09-02T01:27:35.993Z,19.19
2023-09-02T01:30:32.706Z,19.17
2023-09-02T01:33:03.100Z,19.20
2023-09-02T01:35:35.195Z,19.13
2023-09-02T01:38:04.670Z,19.10
2023-09-02T01:40:33.602Z,19.09
2023-09-02T01:43:01.685Z,19.16
2023-09-02T01:45:35.163Z,19.06
2023-09-02T01:48:03.167Z,19.13
2023-09-02T01:50:31.872Z,19.08
2023-09-02T01:53:00.223Z,19.08
2023-09-02T01:55:27.300Z,18.98
2023-09-02T01:57:56.777Z,18.92
2023-09-02T02:00:23.874Z,18.92
2023-09-02T02:02:51.108Z,18.83
2023-09-02T02:05:20.666Z,18.80
2023-09-02T02:07:52.664Z,18.79
2023-09-02T02:10:21.883Z,18.78
2023-09-02T02:12:49.154Z,18.79
2023-09-02T02:15:15.996Z,18.75
2023-09-02T02:17:42.972Z,18.67
2023-09-02T02:20:10.712Z,18.72
2023-09-02T02:22:37.762Z,18.69
2023-09-02T02:25:05.289Z,18.65
2023-09-02T02:27:32.382Z,18.65
2023-09-02T02:29:59.300Z,18.61
2023-09-02T02:32:26.216Z,18.60
2023-09-02T02:34:53.058Z,18.61
2023-09-02T02:37:19.940Z,18.49
2023-09-02T02:39:46.942Z,18.54
2023-09-02T02:42:13.865Z,18.51
2023-09-02T02:44:40.770Z,18.50
2023-09-02T02:47:07.736Z,18.56
2023-09-02T02:49:34.653Z,18.53
2023-09-02T02:52:01.667Z,18.46
2023-09-02T02:54:28.791Z,18.43
2023-09-02T02:56:55.708Z,18.51
2023-09-02T02:59:22.659Z,18.53
2023-09-02T03:01:51.070Z,18.47
2023-09-02T03:04:18.122Z,18.48
2023-09-02T03:06:45.082Z,18.43
2023-09-02T03:09:11.876Z,18.49
2023-09-02T03:11:38.773Z,18.50
2023-09-02T03:14:05.716Z,18.48
2023-09-02T03:16:32.761Z,18.49
2023-09-02T03:18:59.616Z,18.53
2023-09-02T03:21:26.519Z,18.48
2023-09-02T03:23:53.397Z,18.51
2023-09-02T03:26:20.300Z,18.56
2023-09-02T03:28:47.258Z,18.51
2023-09-02T03:31:14.307Z,18.51
2023-09-02T03:33:41.370Z,18.55
2023-09-02T03:36:08.393Z,18.54
2023-09-02T03:38:35.316Z,18.55
2023-09-02T03:41:10.363Z,18.57
2023-09-02T03:43:37.262Z,18.54
2023-09-02T03:46:04.133Z,18.61
2023-09-02T03:48:31.063Z,18.59
2023-09-02T03:51:03.862Z,18.63
2023-09-02T03:53:31.863Z,18.62
2023-09-02T03:56:01.831Z,18.65
2023-09-02T03:58:30.201Z,18.69
2023-09-02T04:00:58.209Z,18.70
2023-09-02T04:03:25.926Z,18.77
2023-09-02T04:05:54.024Z,18.76
2023-09-02T04:08:24.582Z,18.68
2023-09-02T04:10:53.089Z,18.71
2023-09-02T04:13:27.582Z,18.74
2023-09-02T04:15:58.346Z,18.80
2023-09-02T04:18:26.103Z,18.78
2023-09-02T04:20:53.495Z,18.89
2023-09-02T04:23:20.622Z,18.94
2023-09-02T04:25:52.292Z,18.97
2023-09-02T04:28:19.954Z,19.04
2023-09-02T04:30:47.816Z,19.13
2023-09-02T04:33:15.735Z,19.24
2023-09-02T04:35:44.888Z,19.24
2023-09-02T04:38:12.297Z,19.21
2023-09-02T04:40:40.123Z,19.30
2023-09-02T04:43:09.652Z,19.40
2023-09-02T04:45:38.158Z,19.58
2023-09-02T04:48:05.873Z,19.58
2023-09-02T04:50:33.931Z,19.56
2023-09-02T04:53:01.795Z,19.58
2023-09-02T04:55:30.115Z,19.59
2023-09-02T04:57:58.389Z,19.58
2023-09-02T05:00:27.387Z,19.59
2023-09-02T05:02:54.857Z,19.71
2023-09-02T05:05:23.994Z,19.62
2023-09-02T05:07:51.524Z,19.68
2023-09-02T05:10:18.948Z,19.72
2023-09-02T05:12:45.901Z,19.80
2023-09-02T05:15:13.009Z,19.75
2023-09-02T05:17:39.983Z,19.78
2023-09-02T05:20:11.081Z,19.91
2023-09-02T05:22:37.986Z,19.98
2023-09-02T05:25:05.470Z,19.93
2023-09-02T05:27:32.448Z,20.00
2023-09-02T05:29:59.699Z,20.12
2023-09-02T05:32:26.858Z,20.27
2023-09-02T05:34:54.341Z,20.45
2023-09-02T05:37:21.291Z,20.43
2023-09-02T05:39:48.997Z,20.50
2023-09-02T05:42:16.002Z,20.52
2023-09-02T05:44:43.432Z,20.60
2023-09-02T05:47:12.851Z,20.69
2023-09-02T05:49:41.125Z,20.69
2023-09-02T05:52:08.193Z,20.91
2023-09-02T05:54:35.186Z,20.87
2023-09-02T05:57:05.332Z,20.87
2023-09-02T05:59:32.385Z,20.95
2023-09-02T06:01:59.463Z,20.98
2023-09-02T06:04:26.547Z,21.04
2023-09-02T06:06:53.502Z,21.14
2023-09-02T06:09:20.450Z,21.29
2023-09-02T06:11:47.458Z,21.30
2023-09-02T06:14:14.381Z,21.36
2023-09-02T06:16:41.387Z,21.53
2023-09-02T06:19:08.311Z,21.60
2023-09-02T06:21:35.329Z,21.76
2023-09-02T06:24:02.380Z,21.92
2023-09-02T06:26:31.704Z,21.93
2023-09-02T06:28:59.359Z,21.78
2023-09-02T06:31:26.977Z,22.10
2023-09-02T06:33:54.278Z,22.16
2023-09-02T06:36:21.184Z,22.43
2023-09-02T06:38:48.340Z,22.31
2023-09-02T06:41:16.729Z,22.33
2023-09-02T06:43:44.585Z,22.41
2023-09-02T06:46:17.205Z,22.36
2023-09-02T06:48:48.652Z,22.46
2023-09-02T06:51:16.678Z,22.45
2023-09-02T06:53:45.814Z,22.30
2023-09-02T06:56:13.935Z,22.36
2023-09-02T06:58:42.263Z,22.43
2023-09-02T07:01:19.739Z,22.53
2023-09-02T07:03:47.078Z,22.53
2023-09-02T07:06:13.961Z,22.74
2023-09-02T07:08:41.293Z,22.73
2023-09-02T07:11:08.315Z,22.83
2023-09-02T07:13:35.181Z,23.19
2023-09-02T07:16:03.209Z,23.19
2023-09-02T07:18:30.519Z,23.26
2023-09-02T07:21:08.632Z,23.23
2023-09-02T07:23:35.554Z,23.38
2023-09-02T07:26:03.516Z,23.55
2023-09-02T07:28:31.337Z,23.58
2023-09-02T07:30:59.516Z,23.64
2023-09-02T07:33:26.517Z,23.50
2023-09-02T07:35:53.630Z,23.77
2023-09-02T07:38:20.636Z,23.86
2023-09-02T07:40:47.603Z,23.88
2023-09-02T07:43:15.128Z,23.79
2023-09-02T07:45:42.220Z,23.72
2023-09-02T07:48:09.183Z,23.63
2023-09-02T07:50:36.142Z,23.93
2023-09-02T07:53:03.079Z,24.09
2023-09-02T07:55:29.976Z,23.88
2023-09-02T07:57:56.875Z,23.98
2023-09-02T08:00:23.707Z,24.38
2023-09-02T08:02:50.616Z,24.20
2023-09-02T08:05:17.635Z,24.25
2023-09-02T08:07:44.557Z,24.11
2023-09-02T08:10:12.065Z,24.34
2023-09-02T08:12:39.720Z,24.34
2023-09-02T08:15:07.177Z,24.33
2023-09-02T08:17:39.420Z,24.24
2023-09-02T08:20:08.811Z,24.38
2023-09-02T08:22:37.042Z,24.50
2023-09-02T08:25:05.198Z,24.61
2023-09-02T08:27:32.283Z,24.61
2023-09-02T08:29:59.246Z,24.78
2023-09-02T08:32:26.297Z,24.89
2023-09-02T08:34:53.328Z,24.68
2023-09-02T08:37:20.261Z,24.81
2023-09-02T08:39:47.192Z,24.88
2023-09-02T08:42:21.083Z,25.18
2023-09-02T08:44:49.526Z,25.39
2023-09-02T08:47:18.524Z,25.33
2023-09-02T08:49:46.583Z,25.42
2023-09-02T08:52:17.245Z,25.51
2023-09-02T08:54:44.685Z,25.37
2023-09-02T08:57:13.100Z,25.62
2023-09-02T08:59:40.145Z,25.63
2023-09-02T09:02:09.076Z,25.64
2023-09-02T09:04:36.557Z,25.66
2023-09-02T09:07:07.460Z,25.69
2023-09-02T09:09:37.842Z,26.02
2023-09-02T09:12:07.588Z,26.16
2023-09-02T09:14:38.255Z,26.07
2023-09-02T09:17:05.782Z,25.98
2023-09-02T09:19:33.225Z,25.83
2023-09-02T09:22:00.207Z,25.84
2023-09-02T09:24:27.141Z,26.08
2023-09-02T09:26:54.143Z,26.22
2023-09-02T09:29:21.190Z,26.29
2023-09-02T09:31:48.713Z,26.20
2023-09-02T09:34:15.676Z,26.36
2023-09-02T09:36:44.482Z,26.37
2023-09-02T09:39:11.536Z,26.17
2023-09-02T09:41:46.941Z,26.39
2023-09-02T09:44:14.601Z,26.52
2023-09-02T09:46:50.911Z,26.62
2023-09-02T09:49:27.709Z,26.71
2023-09-02T09:52:03.367Z,26.63
2023-09-02T09:54:36.709Z,26.48
2023-09-02T09:57:03.588Z,26.61
2023-09-02T09:59:30.253Z,26.55
2023-09-02T10:01:57.044Z,26.71
2023-09-02T10:04:29.680Z,26.53
2023-09-02T10:07:00.273Z,26.73
2023-09-02T10:09:41.176Z,26.69
2023-09-02T10:12:11.762Z,26.78
2023-09-02T10:14:40.260Z,26.88
2023-09-02T10:17:07.473Z,27.05
2023-09-02T10:19:37.782Z,27.25
2023-09-02T10:22:05.016Z,27.31
2023-09-02T10:24:38.311Z,27.35
2023-09-02T10:27:21.223Z,27.29
2023-09-02T10:29:50.778Z,27.33
2023-09-02T10:32:17.910Z,27.68
2023-09-02T10:34:44.517Z,27.43
2023-09-02T10:37:14.384Z,27.29
2023-09-02T10:39:59.867Z,27.39
2023-09-02T10:42:28.005Z,27.28
2023-09-02T10:44:54.854Z,27.51
2023-09-02T10:47:22.073Z,27.54
2023-09-02T10:49:49.342Z,27.63
2023-09-02T10:52:16.287Z,27.68
2023-09-02T10:55:01.533Z,27.74
2023-09-02T10:57:28.449Z,27.64
2023-09-02T11:00:13.475Z,27.66
2023-09-02T11:02:40.992Z,27.38
2023-09-02T11:05:08.083Z,27.43
2023-09-02T11:07:34.812Z,27.43
2023-09-02T11:10:02.058Z,27.64
2023-09-02T11:12:29.139Z,27.73
2023-09-02T11:15:10.913Z,27.56
2023-09-02T11:17:38.365Z,27.59
2023-09-02T11:20:09.473Z,27.55
2023-09-02T11:22:48.594Z,27.46
2023-09-02T11:25:33.821Z,27.44
2023-09-02T11:28:02.190Z,27.75
2023-09-02T11:30:29.221Z,27.79
2023-09-02T11:32:56.082Z,27.74
2023-09-02T11:35:25.151Z,27.79
2023-09-02T11:37:51.883Z,27.78
2023-09-02T11:40:19.170Z,27.71
2023-09-02T11:43:12.176Z,27.68
2023-09-02T11:45:40.218Z,27.82
2023-09-02T11:48:07.940Z,27.99
2023-09-02T11:50:38.279Z,28.18
2023-09-02T11:53:05.826Z,28.03
2023-09-02T11:55:32.820Z,28.08
2023-09-02T11:58:07.185Z,27.94
2023-09-02T12:00:33.862Z,27.90
2023-09-02T12:03:03.066Z,27.82
2023-09-02T12:05:30.531Z,27.77
2023-09-02T12:07:57.226Z,27.41
2023-09-02T12:10:24.022Z,27.43
2023-09-02T12:12:50.732Z,27.76
2023-09-02T12:15:19.001Z,27.90
2023-09-02T12:17:47.019Z,28.00
2023-09-02T12:20:14.769Z,28.11
2023-09-02T12:22:42.887Z,28.17
2023-09-02T12:25:13.503Z,28.22
2023-09-02T12:27:43.490Z,28.32
2023-09-02T12:30:12.024Z,28.32
2023-09-02T12:32:38.720Z,28.11
2023-09-02T12:35:11.764Z,28.15
2023-09-02T12:37:38.882Z,27.92
2023-09-02T12:40:09.672Z,28.10
2023-09-02T12:42:36.430Z,28.18
2023-09-02T12:45:03.976Z,28.23
2023-09-02T12:47:30.939Z,28.40
2023-09-02T12:49:58.371Z,28.14
2023-09-02T12:52:26.613Z,28.04
2023-09-02T12:54:56.637Z,28.18
2023-09-02T12:57:30.312Z,28.38
2023-09-02T12:59:57.172Z,28.37
2023-09-02T13:02:24.632Z,28.34
2023-09-02T13:04:51.892Z,28.41
2023-09-02T13:07:18.833Z,28.54
2023-09-02T13:09:45.700Z,28.64
2023-09-02T13:12:12.582Z,28.41
2023-09-02T13:14:39.312Z,28.55
2023-09-02T13:17:06.132Z,28.61
2023-09-02T13:19:33.256Z,28.61
2023-09-02T13:22:00.048Z,28.55
2023-09-02T13:24:27.555Z,28.71
2023-09-02T13:26:54.514Z,28.88
2023-09-02T13:29:22.088Z,28.95
2023-09-02T13:31:48.835Z,28.67
2023-09-02T13:34:44.930Z,28.86
2023-09-02T13:37:11.905Z,29.18
2023-09-02T13:39:38.633Z,29.10
2023-09-02T13:42:05.373Z,28.88
2023-09-02T13:44:32.082Z,28.88
2023-09-02T13:47:04.280Z,28.73
2023-09-02T13:49:31.145Z,28.85
2023-09-02T13:51:57.868Z,28.89
2023-09-02T13:54:26.199Z,28.81
2023-09-02T13:56:53.203Z,28.71
2023-09-02T13:59:19.966Z,28.77
2023-09-02T14:01:46.717Z,28.63
2023-09-02T14:04:13.549Z,28.50
2023-09-02T14:06:40.313Z,28.45
2023-09-02T14:09:16.996Z,28.25
2023-09-02T14:11:43.593Z,28.11
2023-09-02T14:14:11.838Z,28.32
2023-09-02T14:16:38.701Z,28.35
2023-09-02T14:19:05.384Z,28.04
2023-09-02T14:21:32.119Z,28.15
2023-09-02T14:23:59.073Z,27.87
2023-09-02T14:26:26.010Z,27.69
2023-09-02T14:28:52.943Z,27.83
2023-09-02T14:31:19.943Z,27.78
2023-09-02T14:33:46.864Z,27.80
2023-09-02T14:36:13.732Z,27.84
2023-09-02T14:38:40.606Z,27.81
2023-09-02T14:41:07.460Z,27.81
2023-09-02T14:43:34.392Z,27.77
2023-09-02T14:46:03.822Z,27.55
2023-09-02T14:48:32.355Z,27.27
2023-09-02T14:50:59.368Z,27.18
2023-09-02T14:53:27.341Z,27.13
2023-09-02T14:55:54.244Z,27.12
2023-09-02T14:58:21.180Z,27.04
2023-09-02T15:00:52.730Z,27.00
2023-09-02T15:03:27.279Z,26.96
2023-09-02T15:05:55.857Z,26.93
2023-09-02T15:08:23.491Z,26.93
2023-09-02T15:10:51.956Z,26.79
2023-09-02T15:13:19.159Z,26.74
2023-09-02T15:15:46.353Z,26.71
2023-09-02T15:18:26.499Z,26.67
2023-09-02T15:20:53.794Z,26.64
2023-09-02T15:23:22.054Z,26.64
2023-09-02T15:25:53.322Z,26.62
2023-09-02T15:28:20.771Z,26.45
2023-09-02T15:30:47.764Z,26.40
2023-09-02T15:33:15.035Z,26.30
2023-09-02T15:35:41.924Z,26.00
2023-09-02T15:38:15.419Z,25.95
2023-09-02T15:40:42.459Z,25.80
2023-09-02T15:43:09.312Z,25.73
2023-09-02T15:45:39.609Z,25.56
2023-09-02T15:48:07.572Z,25.42
2023-09-02T15:50:35.281Z,25.34
2023-09-02T15:53:02.370Z,25.21
2023-09-02T15:55:29.294Z,25.19
2023-09-02T15:57:57.448Z,25.14
2023-09-02T16:00:24.828Z,25.03
2023-09-02T16:02:52.105Z,25.02
2023-09-02T16:05:19.442Z,25.00
2023-09-02T16:07:46.686Z,24.99
2023-09-02T16:10:13.821Z,25.00
2023-09-02T16:12:40.651Z,24.88
2023-09-02T16:15:08.327Z,24.88
2023-09-02T16:17:35.206Z,24.81
2023-09-02T16:20:02.426Z,24.88
2023-09-02T16:22:29.352Z,24.78
2023-09-02T16:24:56.296Z,24.71
2023-09-02T16:27:23.140Z,24.59
2023-09-02T16:29:49.998Z,24.50
2023-09-02T16:32:16.875Z,24.41
2023-09-02T16:34:45.978Z,24.40
2023-09-02T16:37:16.371Z,24.29
2023-09-02T16:39:44.137Z,24.20
2023-09-02T16:42:14.255Z,24.12
2023-09-02T16:44:41.343Z,24.15
2023-09-02T16:47:15.705Z,24.05
2023-09-02T16:49:42.834Z,23.91
2023-09-02T16:52:09.813Z,23.87
2023-09-02T16:54:37.884Z,23.83
2023-09-02T16:57:05.174Z,23.79
2023-09-02T16:59:37.294Z,23.75
2023-09-02T17:02:04.919Z,23.76
2023-09-02T17:04:32.461Z,23.62
2023-09-02T17:07:00.605Z,23.65
2023-09-02T17:09:28.148Z,23.59
2023-09-02T17:11:55.408Z,23.50
2023-09-02T17:14:23.381Z,23.44
2023-09-02T17:16:51.172Z,23.33
2023-09-02T17:19:19.774Z,23.34
2023-09-02T17:21:51.315Z,23.34
2023-09-02T17:24:18.600Z,23.23
2023-09-02T17:26:45.848Z,23.14
2023-09-02T17:29:19.340Z,23.04
2023-09-02T17:31:46.593Z,22.94
2023-09-02T17:34:13.573Z,22.88
2023-09-02T17:36:43.499Z,22.76
2023-09-02T17:39:10.869Z,22.71
2023-09-02T17:41:37.838Z,22.65
2023-09-02T17:44:04.836Z,22.63
2023-09-02T17:46:31.961Z,22.56
2023-09-02T17:48:59.105Z,22.53
2023-09-02T17:51:26.088Z,22.49
2023-09-02T17:53:53.034Z,22.48
2023-09-02T17:56:19.961Z,22.44
2023-09-02T17:58:47.378Z,22.42
2023-09-02T18:01:14.572Z,22.41
2023-09-02T18:03:41.564Z,22.42
2023-09-02T18:06:09.437Z,22.40
2023-09-02T18:08:52.115Z,22.38
2023-09-02T18:11:23.428Z,22.42
2023-09-02T18:13:50.389Z,22.36
2023-09-02T18:16:17.938Z,22.32
2023-09-02T18:18:46.173Z,22.35
2023-09-02T18:21:16.339Z,22.26
2023-09-02T18:23:44.602Z,22.25
2023-09-02T18:26:11.803Z,22.25
2023-09-02T18:28:38.688Z,22.21
2023-09-02T18:31:06.258Z,22.13
2023-09-02T18:33:33.510Z,22.12
2023-09-02T18:36:00.437Z,22.04
2023-09-02T18:38:27.482Z,22.10
2023-09-02T18:40:54.417Z,22.05
2023-09-02T18:43:21.315Z,22.06
2023-09-02T18:45:48.221Z,22.06
2023-09-02T18:48:15.103Z,22.10
2023-09-02T18:50:45.306Z,22.08
2023-09-02T18:53:14.377Z,22.01
2023-09-02T18:55:41.229Z,22.05
2023-09-02T18:58:11.443Z,21.92
2023-09-02T19:00:38.796Z,21.79
2023-09-02T19:03:05.973Z,21.77
2023-09-02T19:05:33.130Z,21.80
2023-09-02T19:08:00.085Z,21.73
2023-09-02T19:10:27.017Z,21.82
2023-09-02T19:12:53.950Z,21.78
2023-09-02T19:15:21.796Z,21.76
2023-09-02T19:17:48.721Z,21.83
2023-09-02T19:20:17.006Z,21.93
2023-09-02T19:22:47.202Z,21.95
2023-09-02T19:25:16.556Z,21.89
2023-09-02T19:27:44.901Z,21.82
2023-09-02T19:30:14.173Z,21.80
2023-09-02T19:32:41.584Z,21.78
2023-09-02T19:35:11.977Z,21.73
2023-09-02T19:37:43.650Z,21.70
2023-09-02T19:40:13.167Z,21.70
2023-09-02T19:42:40.736Z,21.62
2023-09-02T19:45:08.103Z,21.62
2023-09-02T19:47:34.988Z,21.62
2023-09-02T19:50:02.699Z,21.58
2023-09-02T19:52:30.312Z,21.57
2023-09-02T19:54:57.920Z,21.53
2023-09-02T19:57:25.593Z,21.52
2023-09-02T19:59:52.526Z,21.44
2023-09-02T20:02:22.297Z,21.41
2023-09-02T20:04:55.109Z,21.31
2023-09-02T20:07:23.595Z,21.31
2023-09-02T20:09:52.202Z,21.22
2023-09-02T20:12:19.818Z,21.17
2023-09-02T20:14:46.756Z,21.09
2023-09-02T20:17:15.900Z,21.01
2023-09-02T20:19:43.339Z,20.98
2023-09-02T20:22:10.327Z,20.95
2023-09-02T20:24:37.321Z,20.93
2023-09-02T20:27:05.029Z,20.93
2023-09-02T20:29:32.832Z,20.94
2023-09-02T20:32:01.340Z,20.90
2023-09-02T20:34:28.628Z,20.90
2023-09-02T20:36:57.384Z,20.84
2023-09-02T20:39:24.547Z,20.79
2023-09-02T20:41:51.583Z,20.81
2023-09-02T20:44:19.064Z,20.78
2023-09-02T20:46:46.021Z,20.76
2023-09-02T20:49:12.989Z,20.77
2023-09-02T20:51:39.889Z,20.75
2023-09-02T20:54:06.884Z,20.76
2023-09-02T20:56:34.556Z,20.75
2023-09-02T20:59:01.575Z,20.76
2023-09-02T21:01:28.735Z,20.73
2023-09-02T21:03:55.704Z,20.72
2023-09-02T21:06:22.685Z,20.69
2023-09-02T21:08:49.562Z,20.66
2023-09-02T21:11:17.542Z,20.65
2023-09-02T21:13:47.144Z,20.61
2023-09-02T21:16:20.092Z,20.58
2023-09-02T21:18:47.610Z,20.62
2023-09-02T21:21:22.317Z,20.56
2023-09-02T21:23:50.533Z,20.54
2023-09-02T21:26:18.001Z,20.57
2023-09-02T21:28:50.639Z,20.56
2023-09-02T21:31:18.072Z,20.54
2023-09-02T21:33:45.849Z,20.49
2023-09-02T21:36:16.929Z,20.45
2023-09-02T21:38:44.996Z,20.44
2023-09-02T21:41:15.576Z,20.44
2023-09-02T21:43:42.542Z,20.46
2023-09-02T21:46:11.953Z,20.44
2023-09-02T21:48:39.258Z,20.44
2023-09-02T21:51:08.093Z,20.44
2023-09-02T21:53:40.574Z,20.43
2023-09-02T21:56:07.956Z,20.43
2023-09-02T21:58:34.845Z,20.38
2023-09-02T22:01:03.735Z,20.35
2023-09-02T22:03:31.647Z,20.29
2023-09-02T22:06:05.208Z,20.25
2023-09-02T22:08:32.697Z,20.22
2023-09-02T22:11:00.481Z,20.19
2023-09-02T22:13:28.236Z,20.16
2023-09-02T22:15:56.065Z,20.17
2023-09-02T22:18:25.100Z,20.10
2023-09-02T22:20:53.440Z,20.05
2023-09-02T22:23:22.289Z,19.97
2023-09-02T22:25:50.208Z,19.93
2023-09-02T22:28:17.755Z,19.87
2023-09-02T22:30:44.730Z,19.83
2023-09-02T22:33:11.618Z,19.78
2023-09-02T22:35:38.531Z,19.74
2023-09-02T22:38:07.812Z,19.70
2023-09-02T22:40:36.137Z,19.63
2023-09-02T22:43:03.036Z,19.60
2023-09-02T22:45:30.006Z,19.57
2023-09-02T22:47:59.916Z,19.54
2023-09-02T22:50:26.905Z,19.51
2023-09-02T22:52:54.606Z,19.57
2023-09-02T22:55:21.470Z,19.60
2023-09-02T22:57:48.328Z,19.63
2023-09-02T23:00:15.627Z,19.63
2023-09-02T23:02:42.484Z,19.66
2023-09-02T23:05:09.845Z,19.70
2023-09-02T23:07:36.822Z,19.73
2023-09-02T23:10:04.018Z,19.68
2023-09-02T23:12:30.867Z,19.68
2023-09-02T23:14:57.752Z,19.72
2023-09-02T23:17:24.629Z,19.67
2023-09-02T23:19:59.204Z,19.55
2023-09-02T23:22:25.975Z,19.48
2023-09-02T23:24:52.792Z,19.38
2023-09-02T23:27:19.641Z,19.37
2023-09-02T23:29:46.540Z,19.29
2023-09-02T23:32:13.461Z,19.19
2023-09-02T23:34:40.498Z,19.19
2023-09-02T23:37:07.394Z,19.22
2023-09-02T23:39:34.212Z,19.44
2023-09-02T23:42:01.173Z,19.56
2023-09-02T23:44:28.036Z,19.63
2023-09-02T23:46:54.896Z,19.58
2023-09-02T23:49:21.864Z,19.60
2023-09-02T23:51:48.870Z,19.59
2023-09-02T23:54:15.701Z,19.53
2023-09-02T23:56:42.846Z,19.58
2023-09-02T23:59:09.771Z,19.66
